Terminal Aerodrome Forecast
Issued by NWS Boston, MA

Home | Current Version | Previous Version | Text Only | Print | Product List | Glossary On
Versions: 1 2 3 4 5 6 7 8 9 10 11 12 13 14 15 16 17 18 19 20 21 22 23 24 25 26 27 28 29 30 31 32 33 34 35 36 37 38
794
FTUS41 KBOX 221412 AAB
TAFORH
TAF AMD
KORH 221412Z 2214/2312 25010KT P6SM BKN005
     FM221500 26011KT P6SM SCT006
     FM221800 27007KT P6SM BKN090
     FM222300 28005KT P6SM VCSH BKN060
     FM230100 29005KT P6SM VCSH BKN045
     FM230400 30005KT P6SM VCSH BKN050
     FM230900 31004KT P6SM BKN080=

USA.gov is the U.S. government's official web portal to all federal, state and local government web resources and services.